createdAt,value
2022-11-25T00:00:23.667Z,28.83
2022-11-25T00:01:23.638Z,28.86
2022-11-25T00:02:23.746Z,28.55
2022-11-25T00:03:23.688Z,28.55
2022-11-25T00:04:23.636Z,28.32
2022-11-25T00:05:23.651Z,28.17
2022-11-25T00:06:23.716Z,28.28
2022-11-25T00:07:23.697Z,28.07
2022-11-25T00:08:23.645Z,28.02
2022-11-25T00:09:23.640Z,28.16
2022-11-25T00:10:23.647Z,28.57
2022-11-25T00:11:23.643Z,28.27
2022-11-25T00:12:23.719Z,28.57
2022-11-25T00:13:23.637Z,28.69
2022-11-25T00:14:23.643Z,28.41
2022-11-25T00:15:23.684Z,28.46
2022-11-25T00:16:23.758Z,28.43
2022-11-25T00:17:23.647Z,29.04
2022-11-25T00:18:23.669Z,29.1
2022-11-25T00:19:23.639Z,28.8
2022-11-25T00:20:23.654Z,28.65
2022-11-25T00:21:23.642Z,28.52
2022-11-25T00:22:23.632Z,28.86
2022-11-25T00:23:23.640Z,28.81
2022-11-25T00:24:23.639Z,28.8
2022-11-25T00:25:23.655Z,28.86
2022-11-25T00:26:23.625Z,29.11
2022-11-25T00:27:23.641Z,29.47
2022-11-25T00:28:23.644Z,29.64
2022-11-25T00:29:23.647Z,29
2022-11-25T00:30:23.661Z,28.92
2022-11-25T00:31:23.767Z,29.04
2022-11-25T00:32:23.639Z,29.21
2022-11-25T00:33:23.636Z,28.88
2022-11-25T00:34:23.651Z,28.32
2022-11-25T00:35:23.654Z,28.18
2022-11-25T00:36:23.666Z,28.34
2022-11-25T00:37:23.645Z,28.34
2022-11-25T00:38:23.629Z,28.19
2022-11-25T00:39:23.630Z,28.27
2022-11-25T00:40:23.650Z,28.54
2022-11-25T00:41:23.637Z,28.58
2022-11-25T00:42:23.631Z,28.15
2022-11-25T00:43:23.626Z,28.45
2022-11-25T00:44:23.639Z,28.53
2022-11-25T00:45:23.739Z,28.64
2022-11-25T00:46:23.630Z,28.73
2022-11-25T00:47:23.618Z,28.57
2022-11-25T00:48:23.636Z,28.7
2022-11-25T00:49:23.624Z,28.86
2022-11-25T00:50:23.664Z,28.74
2022-11-25T00:51:23.625Z,28.73
2022-11-25T00:52:23.620Z,29
2022-11-25T00:53:23.629Z,29.16
2022-11-25T00:54:23.619Z,28.62
2022-11-25T00:55:23.662Z,28.62
2022-11-25T00:56:23.679Z,28.75
2022-11-25T00:57:23.662Z,28.88
2022-11-25T00:58:23.653Z,28.91
2022-11-25T00:59:23.638Z,28.93
2022-11-25T01:00:23.652Z,28.87
2022-11-25T01:01:23.685Z,29.04
2022-11-25T01:02:23.853Z,29.14
2022-11-25T01:03:23.632Z,29.15
2022-11-25T01:04:23.642Z,28.7
2022-11-25T01:05:23.645Z,28.62
2022-11-25T01:06:23.637Z,28.69
2022-11-25T01:07:23.684Z,28.91
2022-11-25T01:08:23.636Z,29.31
2022-11-25T01:09:23.641Z,29.31
2022-11-25T01:10:23.655Z,29.47
2022-11-25T01:11:23.640Z,29.23
2022-11-25T01:12:23.637Z,29.36
2022-11-25T01:13:23.639Z,29.48
2022-11-25T01:14:23.643Z,29.41
2022-11-25T01:15:23.648Z,29.35
2022-11-25T01:16:23.676Z,29.5
2022-11-25T01:17:23.634Z,29.21
2022-11-25T01:18:23.678Z,29.1
2022-11-25T01:19:23.644Z,29.1
2022-11-25T01:20:23.659Z,29.1
2022-11-25T01:21:23.721Z,29.16
2022-11-25T01:22:23.630Z,29.62
2022-11-25T01:23:23.658Z,29.32
2022-11-25T01:24:24.254Z,29.33
2022-11-25T01:25:23.650Z,29.46
2022-11-25T01:26:23.632Z,29.46
2022-11-25T01:27:23.631Z,29.24
2022-11-25T01:28:23.632Z,29.5
2022-11-25T01:29:23.645Z,29.25
2022-11-25T01:30:23.661Z,29.43
2022-11-25T01:31:23.775Z,29.68
2022-11-25T01:32:23.640Z,30.09
2022-11-25T01:33:23.634Z,29.56
2022-11-25T01:34:23.643Z,29.63
2022-11-25T01:35:23.647Z,29.98
2022-11-25T01:36:23.637Z,29.75
2022-11-25T01:37:23.646Z,29.71
2022-11-25T01:38:23.643Z,29.46
2022-11-25T01:39:27.078Z,29.52
2022-11-25T01:40:23.662Z,29.45
2022-11-25T01:41:23.652Z,29.45
2022-11-25T01:42:23.644Z,29.27
2022-11-25T01:43:23.632Z,29.24
2022-11-25T01:44:23.641Z,29.32
2022-11-25T01:45:26.714Z,29.58
2022-11-25T01:46:23.659Z,30.68
2022-11-25T01:47:23.680Z,30.68
2022-11-25T01:48:23.619Z,29.4
2022-11-25T01:49:23.639Z,29.6
2022-11-25T01:50:23.646Z,29.52
2022-11-25T01:51:23.631Z,29.5
2022-11-25T01:52:23.625Z,29.82
2022-11-25T01:53:23.624Z,29.72
2022-11-25T01:54:23.623Z,29.58
2022-11-25T01:55:23.653Z,29.58
2022-11-25T01:56:23.623Z,29.7
2022-11-25T01:57:23.624Z,29.47
2022-11-25T01:58:23.638Z,29.75
2022-11-25T01:59:23.618Z,30.15
2022-11-25T02:00:23.648Z,30.13
2022-11-25T02:01:23.658Z,30.07
2022-11-25T02:02:23.707Z,30.21
2022-11-25T02:03:23.632Z,29.89
2022-11-25T02:04:23.629Z,30.1
2022-11-25T02:05:23.652Z,30.04
2022-11-25T02:06:23.659Z,30.06
2022-11-25T02:07:23.685Z,30.04
2022-11-25T02:08:23.633Z,30.43
2022-11-25T02:09:23.630Z,30.07
2022-11-25T02:10:23.652Z,30.57
2022-11-25T02:11:23.640Z,30.14
2022-11-25T02:12:23.637Z,30.53
2022-11-25T02:13:23.640Z,29.94
2022-11-25T02:14:23.636Z,29.94
2022-11-25T02:15:23.649Z,30.39
2022-11-25T02:16:23.696Z,30.46
2022-11-25T02:17:23.628Z,30
2022-11-25T02:18:23.640Z,30.22
2022-11-25T02:19:23.640Z,30.18
2022-11-25T02:20:23.656Z,29.93
2022-11-25T02:21:23.631Z,29.93
2022-11-25T02:22:23.753Z,30.23
2022-11-25T02:23:23.636Z,30.23
2022-11-25T02:24:23.639Z,30.2
2022-11-25T02:25:23.653Z,30.15
2022-11-25T02:26:23.639Z,30.26
2022-11-25T02:27:23.673Z,30.13
2022-11-25T02:28:23.647Z,30.38
2022-11-25T02:29:23.640Z,30.58
2022-11-25T02:30:23.666Z,30.4
2022-11-25T02:31:23.703Z,30.69
2022-11-25T02:32:23.643Z,30.91
2022-11-25T02:33:23.630Z,30.77
2022-11-25T02:34:23.646Z,30.31
2022-11-25T02:35:23.654Z,30.12
2022-11-25T02:36:23.642Z,30.73
2022-11-25T02:37:23.648Z,30.72
2022-11-25T02:38:23.649Z,30.86
2022-11-25T02:39:23.635Z,31.17
2022-11-25T02:40:23.652Z,30.77
2022-11-25T02:41:23.628Z,30.78
2022-11-25T02:42:23.648Z,30.61
2022-11-25T02:43:23.679Z,30.49
2022-11-25T02:44:23.639Z,30.57
2022-11-25T02:45:23.708Z,30.98
2022-11-25T02:46:23.721Z,30.8
2022-11-25T02:47:23.637Z,31.14
2022-11-25T02:48:39.677Z,30.77
2022-11-25T02:49:23.725Z,30.82
2022-11-25T02:50:23.647Z,31.21
2022-11-25T02:51:23.642Z,30.91
2022-11-25T02:52:23.628Z,30.91
2022-11-25T02:53:23.631Z,31.13
2022-11-25T02:54:23.622Z,31.05
2022-11-25T02:55:23.671Z,30.76
2022-11-25T02:56:23.613Z,30.76
2022-11-25T02:57:23.614Z,30.78
2022-11-25T02:58:23.621Z,31.02
2022-11-25T02:59:23.625Z,31.5
2022-11-25T03:00:23.645Z,31.21
2022-11-25T03:01:23.702Z,31.37
2022-11-25T03:02:23.650Z,31.34
2022-11-25T03:03:23.613Z,30.85
2022-11-25T03:04:23.615Z,30.66
2022-11-25T03:05:23.630Z,30.96
2022-11-25T03:06:23.620Z,31.63
2022-11-25T03:07:23.669Z,31.33
2022-11-25T03:08:23.662Z,31.65
2022-11-25T03:09:23.625Z,31.58
2022-11-25T03:10:23.652Z,31.85
2022-11-25T03:11:23.621Z,31.32
2022-11-25T03:12:23.616Z,31.54
2022-11-25T03:13:23.617Z,31.12
2022-11-25T03:14:23.718Z,31.57
2022-11-25T03:15:23.660Z,31.82
2022-11-25T03:16:23.726Z,31.53
2022-11-25T03:17:23.670Z,31.74
2022-11-25T03:18:23.626Z,31.56
2022-11-25T03:19:23.643Z,31.63
2022-11-25T03:20:23.716Z,31.67
2022-11-25T03:21:23.640Z,31.75
2022-11-25T03:22:23.636Z,31.92
2022-11-25T03:23:23.628Z,32.07
2022-11-25T03:24:23.632Z,32.22
2022-11-25T03:25:23.668Z,32.62
2022-11-25T03:26:23.630Z,32.67
2022-11-25T03:27:23.635Z,32.24
2022-11-25T03:28:23.639Z,31.86
2022-11-25T03:29:23.640Z,31.69
2022-11-25T03:30:23.642Z,31.97
2022-11-25T03:31:23.676Z,32.16
2022-11-25T03:32:23.640Z,32.11
2022-11-25T03:33:23.640Z,32.12
2022-11-25T03:34:23.630Z,32.6
2022-11-25T03:35:23.639Z,32.55
2022-11-25T03:36:23.627Z,32.37
2022-11-25T03:37:23.705Z,33.26
2022-11-25T03:38:23.646Z,33.26
2022-11-25T03:39:23.648Z,33.08
2022-11-25T03:40:23.662Z,33.38
2022-11-25T03:41:23.635Z,33.54
2022-11-25T03:42:23.640Z,33.62
2022-11-25T03:43:23.632Z,33.86
2022-11-25T03:44:23.628Z,34.25
2022-11-25T03:45:23.648Z,33.68
2022-11-25T03:46:23.772Z,33.06
2022-11-25T03:47:23.639Z,32.75
2022-11-25T03:48:23.634Z,33.27
2022-11-25T03:49:23.635Z,32.73
2022-11-25T03:50:23.644Z,32.95
2022-11-25T03:51:23.638Z,32.75
2022-11-25T03:52:23.642Z,32.81
2022-11-25T03:53:23.642Z,33.4
2022-11-25T03:54:23.639Z,34.19
2022-11-25T03:55:23.651Z,34.47
2022-11-25T03:56:23.614Z,34.47
2022-11-25T03:57:23.640Z,34.41
2022-11-25T03:58:23.643Z,34.46
2022-11-25T03:59:23.634Z,34.38
2022-11-25T04:00:23.642Z,34.87
2022-11-25T04:01:23.659Z,35.39
2022-11-25T04:02:23.705Z,35.26
2022-11-25T04:03:23.620Z,35.54
2022-11-25T04:04:23.621Z,35.54
2022-11-25T04:05:23.646Z,35.39
2022-11-25T04:06:23.624Z,36.03
2022-11-25T04:07:23.665Z,36.44
2022-11-25T04:08:23.625Z,36.72
2022-11-25T04:09:23.614Z,36.72
2022-11-25T04:10:23.647Z,36.98
2022-11-25T04:11:23.613Z,36.83
2022-11-25T04:12:23.614Z,37.37
2022-11-25T04:13:23.614Z,37.3
2022-11-25T04:14:23.615Z,37.11
2022-11-25T04:15:23.648Z,37.11
2022-11-25T04:16:23.713Z,37.56
2022-11-25T04:17:23.618Z,37.56
2022-11-25T04:18:23.628Z,37.14
2022-11-25T04:19:23.614Z,37.92
2022-11-25T04:20:23.636Z,37.22
2022-11-25T04:21:23.622Z,37.01
2022-11-25T04:22:23.614Z,37.34
2022-11-25T04:23:23.650Z,37.63
2022-11-25T04:24:23.634Z,37.62
2022-11-25T04:25:23.645Z,37.38
2022-11-25T04:26:23.624Z,37.24
2022-11-25T04:27:23.634Z,37.2
2022-11-25T04:28:23.641Z,37.26
2022-11-25T04:29:23.644Z,37.26
2022-11-25T04:30:23.657Z,38.17
2022-11-25T04:31:23.626Z,37.58
2022-11-25T04:32:23.637Z,37.99
2022-11-25T04:33:23.635Z,37.96
2022-11-25T04:34:23.626Z,37.57
2022-11-25T04:35:23.642Z,37.49
2022-11-25T04:36:23.634Z,37.65
2022-11-25T04:37:23.655Z,37.74
2022-11-25T04:38:23.634Z,37.6
2022-11-25T04:39:23.634Z,37.64
2022-11-25T04:40:23.646Z,36.79
2022-11-25T04:41:23.630Z,37.81
2022-11-25T04:42:23.635Z,37.46
2022-11-25T04:43:23.641Z,37.28
2022-11-25T04:44:23.637Z,36.86
2022-11-25T04:45:24.225Z,37.62
2022-11-25T04:46:23.703Z,37.3
2022-11-25T04:47:23.629Z,37.2
2022-11-25T04:48:23.632Z,36.94
2022-11-25T04:49:23.634Z,37.28
2022-11-25T04:50:23.644Z,36.98
2022-11-25T04:51:23.619Z,36.63
2022-11-25T04:52:23.639Z,36.67
2022-11-25T04:53:23.645Z,36.41
2022-11-25T04:54:23.642Z,36.48
2022-11-25T04:55:23.655Z,36.54
2022-11-25T04:56:23.633Z,36.73
2022-11-25T04:57:23.641Z,37.07
2022-11-25T04:58:23.646Z,36.73
2022-11-25T04:59:23.644Z,36.82
2022-11-25T05:00:23.662Z,36.67
2022-11-25T05:01:23.727Z,36.11
2022-11-25T05:02:23.659Z,35.85
2022-11-25T05:03:23.647Z,36.68
2022-11-25T05:04:23.636Z,36.2
2022-11-25T05:05:23.646Z,36.29
2022-11-25T05:06:23.629Z,36.7
2022-11-25T05:07:23.666Z,37.24
2022-11-25T05:08:23.630Z,36.38
2022-11-25T05:09:23.632Z,36.54
2022-11-25T05:10:23.649Z,36.55
2022-11-25T05:11:23.638Z,36.3
2022-11-25T05:12:23.642Z,36.52
2022-11-25T05:13:23.642Z,36.52
2022-11-25T05:14:23.636Z,36.37
2022-11-25T05:15:23.642Z,36.37
2022-11-25T05:16:23.696Z,36.23
2022-11-25T05:17:23.619Z,36.28
2022-11-25T05:18:23.625Z,36.6
2022-11-25T05:19:23.616Z,36.65
2022-11-25T05:20:23.643Z,36.43
2022-11-25T05:21:23.615Z,36.84
2022-11-25T05:22:23.615Z,36.77
2022-11-25T05:23:23.622Z,36.78
2022-11-25T05:24:23.615Z,37.14
2022-11-25T05:25:23.646Z,37.1
2022-11-25T05:26:23.615Z,36.77
2022-11-25T05:27:23.621Z,36.14
2022-11-25T05:28:23.622Z,35.6
2022-11-25T05:29:23.619Z,35.18
2022-11-25T05:30:23.682Z,38.01
2022-11-25T05:31:23.619Z,35.94
2022-11-25T05:32:23.620Z,36.15
2022-11-25T05:33:23.629Z,36.15
2022-11-25T05:34:23.630Z,35.9
2022-11-25T05:35:23.642Z,35.84
2022-11-25T05:36:23.621Z,36.33
2022-11-25T05:37:24.741Z,36.83
2022-11-25T05:38:23.634Z,36.86
2022-11-25T05:39:23.632Z,36.48
2022-11-25T05:40:23.650Z,37.17
2022-11-25T05:41:23.616Z,37.06
2022-11-25T05:42:23.639Z,36.44
2022-11-25T05:43:23.632Z,37.01
2022-11-25T05:44:23.639Z,37.41
2022-11-25T05:45:23.646Z,36.76
2022-11-25T05:46:23.688Z,36.16
2022-11-25T05:47:23.639Z,36.53
2022-11-25T05:48:23.620Z,36.89
2022-11-25T05:49:23.634Z,37.16
2022-11-25T05:50:23.645Z,36.53
2022-11-25T05:51:23.622Z,36.78
2022-11-25T05:52:23.639Z,36.25
2022-11-25T05:53:23.635Z,36.64
2022-11-25T05:54:23.640Z,36.81
2022-11-25T05:55:23.644Z,36.67
2022-11-25T05:56:23.629Z,37.07
2022-11-25T05:57:23.618Z,37.08
2022-11-25T05:58:23.640Z,37.77
2022-11-25T05:59:23.618Z,37.03
2022-11-25T06:00:26.540Z,37.59
2022-11-25T06:01:23.637Z,37.64
2022-11-25T06:02:23.685Z,37.22
2022-11-25T06:03:23.709Z,36.72
2022-11-25T06:04:23.630Z,36.96
2022-11-25T06:05:23.647Z,36.6
2022-11-25T06:06:23.632Z,37.04
2022-11-25T06:07:23.668Z,36.91
2022-11-25T06:08:23.645Z,36.89
2022-11-25T06:09:23.643Z,37.14
2022-11-25T06:10:23.649Z,37.14
2022-11-25T06:11:23.652Z,38.53
2022-11-25T06:12:23.629Z,37.84
2022-11-25T06:13:23.639Z,38.67
2022-11-25T06:14:23.624Z,38.47
2022-11-25T06:15:23.640Z,38.54
2022-11-25T06:16:23.765Z,38.1
2022-11-25T06:17:23.636Z,38.28
2022-11-25T06:18:23.624Z,38.42
2022-11-25T06:19:23.634Z,38.89
2022-11-25T06:20:23.647Z,39.6
2022-11-25T06:21:23.626Z,38.81
2022-11-25T06:22:23.640Z,38.81
2022-11-25T06:23:23.638Z,39.37
2022-11-25T06:24:23.637Z,40.1
2022-11-25T06:25:23.643Z,39.49
2022-11-25T06:26:23.634Z,39.87
2022-11-25T06:27:23.619Z,39.82
2022-11-25T06:28:23.614Z,39.82
2022-11-25T06:29:23.628Z,39.29
2022-11-25T06:30:23.655Z,39.62
2022-11-25T06:31:23.678Z,40.01
2022-11-25T06:32:23.617Z,39.1
2022-11-25T06:33:23.626Z,38.8
2022-11-25T06:34:23.620Z,38.8
2022-11-25T06:35:23.643Z,39.06
2022-11-25T06:36:23.623Z,39.04
2022-11-25T06:37:23.621Z,39.25
2022-11-25T06:38:23.626Z,38.86
2022-11-25T06:39:23.705Z,38.85
2022-11-25T06:40:23.641Z,38.72
2022-11-25T06:41:23.617Z,39.09
2022-11-25T06:42:23.621Z,39.09
2022-11-25T06:43:23.628Z,38.92
2022-11-25T06:44:23.621Z,38.32
2022-11-25T06:45:23.646Z,38.51
2022-11-25T06:46:25.335Z,38.93
2022-11-25T06:47:23.621Z,39.33
2022-11-25T06:48:23.615Z,39.05
2022-11-25T06:49:23.621Z,39
2022-11-25T06:50:23.650Z,39.21
2022-11-25T06:51:23.642Z,38.99
2022-11-25T06:52:23.635Z,38.84
2022-11-25T06:53:24.281Z,38.84
2022-11-25T06:54:23.639Z,39.49
2022-11-25T06:55:23.646Z,39.12
2022-11-25T06:56:23.639Z,38.79
2022-11-25T06:57:23.628Z,38.79
2022-11-25T06:58:35.430Z,39.31
2022-11-25T06:59:23.634Z,39.73
2022-11-25T07:00:23.742Z,39.43
2022-11-25T07:01:23.702Z,39.63
2022-11-25T07:02:23.679Z,39.64
2022-11-25T07:03:23.736Z,40.53
2022-11-25T07:04:23.627Z,40.17
2022-11-25T07:05:23.648Z,40.44
2022-11-25T07:06:23.637Z,41.47
2022-11-25T07:07:23.708Z,40.61
2022-11-25T07:08:23.632Z,40.41
2022-11-25T07:09:23.624Z,39.53
2022-11-25T07:10:23.649Z,39.52
2022-11-25T07:11:23.637Z,39.65
2022-11-25T07:12:23.623Z,39.77
2022-11-25T07:13:23.638Z,39.93
2022-11-25T07:14:23.637Z,40.68
2022-11-25T07:15:23.642Z,40.27
2022-11-25T07:16:23.628Z,40.37
2022-11-25T07:17:23.634Z,40.65
2022-11-25T07:18:23.638Z,40.58
2022-11-25T07:19:23.643Z,40.56
2022-11-25T07:20:23.653Z,39.88
2022-11-25T07:21:23.630Z,40.33
2022-11-25T07:22:23.644Z,40.62
2022-11-25T07:23:23.619Z,40.32
2022-11-25T07:24:23.637Z,40.85
2022-11-25T07:25:29.348Z,40.7
2022-11-25T07:26:23.635Z,40.76
2022-11-25T07:27:23.638Z,40.54
2022-11-25T07:28:23.633Z,40.59
2022-11-25T07:29:51.626Z,40.8
2022-11-25T07:31:27.136Z,40.29
2022-11-25T07:32:23.635Z,39.85
2022-11-25T07:33:23.666Z,39.59
2022-11-25T07:34:23.639Z,40.08
2022-11-25T07:35:23.642Z,40.32
2022-11-25T07:36:23.631Z,40.2
2022-11-25T07:37:23.635Z,40.96
2022-11-25T07:38:23.637Z,40.96
2022-11-25T07:39:23.621Z,40.54
2022-11-25T07:40:23.641Z,39.52
2022-11-25T07:41:23.618Z,39.52
2022-11-25T07:42:23.617Z,39.94
2022-11-25T07:43:23.630Z,39.64
2022-11-25T07:44:23.627Z,40
2022-11-25T07:45:23.647Z,39.97
2022-11-25T07:46:26.779Z,40.33
2022-11-25T07:47:23.627Z,39.59
2022-11-25T07:48:23.620Z,39.28
2022-11-25T07:49:23.626Z,39.28
2022-11-25T07:50:23.640Z,39.06
2022-11-25T07:51:23.625Z,39.17
2022-11-25T07:52:23.626Z,40.27
2022-11-25T07:53:23.620Z,39.53
2022-11-25T07:54:23.625Z,38.64
2022-11-25T07:55:23.647Z,38.6
2022-11-25T07:56:23.615Z,38.48
2022-11-25T07:57:23.623Z,39.38
2022-11-25T07:58:23.619Z,39.62
2022-11-25T07:59:23.621Z,39.21
2022-11-25T08:00:23.654Z,39.25
2022-11-25T08:01:23.769Z,39.63
2022-11-25T08:02:23.671Z,40.09
2022-11-25T08:03:23.680Z,39.06
2022-11-25T08:04:23.633Z,39.38
2022-11-25T08:05:23.636Z,39.17
2022-11-25T08:06:23.625Z,39.1
2022-11-25T08:07:23.698Z,38.81
2022-11-25T08:08:23.642Z,38.66
2022-11-25T08:09:23.673Z,38.66
2022-11-25T08:10:23.659Z,38.34
2022-11-25T08:11:23.639Z,38.31
2022-11-25T08:12:23.639Z,38.78
2022-11-25T08:13:23.635Z,39.1
2022-11-25T08:14:23.643Z,39.59
2022-11-25T08:15:23.648Z,39.24
2022-11-25T08:16:23.705Z,39.18
2022-11-25T08:17:23.652Z,39.91
2022-11-25T08:18:23.635Z,39.21
2022-11-25T08:19:28.404Z,39.14
2022-11-25T08:20:23.662Z,38.5
2022-11-25T08:21:23.638Z,39.15
2022-11-25T08:22:23.632Z,38.62
2022-11-25T08:23:23.643Z,38.31
2022-11-25T08:24:23.632Z,38.67
2022-11-25T08:25:23.645Z,38.23
2022-11-25T08:26:23.624Z,37.86
2022-11-25T08:27:23.639Z,37.8
2022-11-25T08:28:23.636Z,37.57
2022-11-25T08:29:23.636Z,38.25
2022-11-25T08:30:23.658Z,37.54
2022-11-25T08:31:23.841Z,37.54
2022-11-25T08:32:23.638Z,37.54
2022-11-25T08:33:23.642Z,37.4
2022-11-25T08:34:23.637Z,37.31
2022-11-25T08:35:23.644Z,36.86
2022-11-25T08:36:23.623Z,37.35
2022-11-25T08:37:23.630Z,36.97
2022-11-25T08:38:23.639Z,36.65
2022-11-25T08:39:51.114Z,37.03
2022-11-25T08:40:23.682Z,36.52
2022-11-25T08:41:23.647Z,36.91
2022-11-25T08:42:23.633Z,36.81
2022-11-25T08:43:29.062Z,36.81
2022-11-25T08:44:23.634Z,35.72
2022-11-25T08:45:23.644Z,35.72
2022-11-25T08:46:23.648Z,36.63
2022-11-25T08:47:23.638Z,36.68
2022-11-25T08:48:23.641Z,35.71
2022-11-25T08:49:23.635Z,35.67
2022-11-25T08:50:23.717Z,35.58
2022-11-25T08:51:23.638Z,35.7
2022-11-25T08:52:23.645Z,35.58
2022-11-25T08:53:23.629Z,35.47
2022-11-25T08:54:23.623Z,35.71
2022-11-25T08:55:23.649Z,35.58
2022-11-25T08:56:26.341Z,35.28
2022-11-25T08:57:23.626Z,35.17
2022-11-25T08:58:23.623Z,35.31
2022-11-25T08:59:23.621Z,34.76
2022-11-25T09:00:23.661Z,34.59
2022-11-25T09:01:23.674Z,34.71
2022-11-25T09:02:23.658Z,34.82
2022-11-25T09:03:23.665Z,34.52
2022-11-25T09:04:23.621Z,34.57
2022-11-25T09:05:23.655Z,34.6
2022-11-25T09:06:23.622Z,34.31
2022-11-25T09:07:29.138Z,34.32
2022-11-25T09:08:23.631Z,34.24
2022-11-25T09:09:23.622Z,34.15
2022-11-25T09:10:23.663Z,34.15
2022-11-25T09:11:23.744Z,34.8
2022-11-25T09:12:23.620Z,34.47
2022-11-25T09:13:23.638Z,34.22
2022-11-25T09:14:23.703Z,33.47
2022-11-25T09:15:23.658Z,33.42
2022-11-25T09:16:25.777Z,33.39
2022-11-25T09:17:23.686Z,33.73
2022-11-25T09:18:23.630Z,33.16
2022-11-25T09:19:23.629Z,33.16
2022-11-25T09:20:23.648Z,32.75
2022-11-25T09:21:23.632Z,32.75
2022-11-25T09:22:23.640Z,32.91
2022-11-25T09:23:23.630Z,32.8
2022-11-25T09:24:23.638Z,33.21
2022-11-25T09:25:23.645Z,33.12
2022-11-25T09:26:23.649Z,33.17
2022-11-25T09:27:23.652Z,33.46
2022-11-25T09:28:23.627Z,33.38
2022-11-25T09:29:23.633Z,33.63
2022-11-25T09:30:23.733Z,33.5
2022-11-25T09:31:23.704Z,33.5
2022-11-25T09:32:23.640Z,33.35
2022-11-25T09:33:23.639Z,33.16
2022-11-25T09:34:23.654Z,33.07
2022-11-25T09:35:23.647Z,33.26
2022-11-25T09:36:23.659Z,33.4
2022-11-25T09:37:23.646Z,33.49
2022-11-25T09:38:23.635Z,34.11
2022-11-25T09:39:23.625Z,34.11
2022-11-25T09:40:23.665Z,33.47
2022-11-25T09:41:23.664Z,33.51
2022-11-25T09:42:23.622Z,33.64
2022-11-25T09:43:23.639Z,33.26
2022-11-25T09:44:23.636Z,33.23
2022-11-25T09:45:23.643Z,33.6
2022-11-25T09:46:23.699Z,33.8
2022-11-25T09:47:23.636Z,33.65
2022-11-25T09:48:23.632Z,33.78
2022-11-25T09:49:23.634Z,34.29
2022-11-25T09:50:23.653Z,33.1
2022-11-25T09:51:23.625Z,33.53
2022-11-25T09:52:29.500Z,33.46
2022-11-25T09:53:28.287Z,33.24
2022-11-25T09:54:28.301Z,33.9
2022-11-25T09:55:28.291Z,34.11
2022-11-25T09:56:28.259Z,33.99
2022-11-25T09:57:28.311Z,33.99
2022-11-25T09:58:28.262Z,33.58
2022-11-25T09:59:28.283Z,34.54
2022-11-25T10:00:28.283Z,34.54
2022-11-25T10:01:28.279Z,34.27
2022-11-25T10:02:28.378Z,34.49
2022-11-25T10:03:28.336Z,34.07
2022-11-25T10:04:28.259Z,33.44
2022-11-25T10:05:28.271Z,33.58
2022-11-25T10:06:28.369Z,33.28
2022-11-25T10:07:28.264Z,33.17
2022-11-25T10:08:28.265Z,33.17
2022-11-25T10:09:28.263Z,33.57
2022-11-25T10:10:28.293Z,33.57
2022-11-25T10:11:28.275Z,33.38
2022-11-25T10:12:28.264Z,33.36
2022-11-25T10:13:28.264Z,33.95
2022-11-25T10:14:28.263Z,34.01
2022-11-25T10:15:28.280Z,34.47
2022-11-25T10:16:28.361Z,33.67
2022-11-25T10:17:28.260Z,33.64
2022-11-25T10:18:28.262Z,33.44
2022-11-25T10:19:28.263Z,34.17
2022-11-25T10:20:28.266Z,34.17
2022-11-25T10:21:28.255Z,34.06
2022-11-25T10:22:28.260Z,34.37
2022-11-25T10:23:28.750Z,34.59
2022-11-25T10:24:28.256Z,33.98
2022-11-25T10:25:28.273Z,33.98
2022-11-25T10:26:28.262Z,33.35
2022-11-25T10:27:28.262Z,33.72
2022-11-25T10:28:28.267Z,33.69
2022-11-25T10:29:28.253Z,33.54
2022-11-25T10:30:28.265Z,33.54
2022-11-25T10:31:28.298Z,34.16
2022-11-25T10:32:28.263Z,34.23
2022-11-25T10:33:28.260Z,33.67
2022-11-25T10:34:28.251Z,33.67
2022-11-25T10:35:28.279Z,33.67
2022-11-25T10:36:28.242Z,34.32
2022-11-25T10:37:28.257Z,34.28
2022-11-25T10:38:28.243Z,33.92
2022-11-25T10:39:28.265Z,34.74
2022-11-25T10:40:28.287Z,34.68
2022-11-25T10:41:28.248Z,34.76
2022-11-25T10:42:28.254Z,34.68
2022-11-25T10:43:31.721Z,35.44
2022-11-25T10:44:28.259Z,35.02
2022-11-25T10:45:28.277Z,34.42
2022-11-25T10:46:43.322Z,34.04
2022-11-25T10:47:28.348Z,33.79
2022-11-25T10:48:28.238Z,33.97
2022-11-25T10:49:28.247Z,34.12
2022-11-25T10:50:28.271Z,34.12
2022-11-25T10:51:28.234Z,34.12
2022-11-25T10:52:28.272Z,33.89
2022-11-25T10:53:28.240Z,33.78
2022-11-25T10:54:28.338Z,34.02
2022-11-25T10:55:28.342Z,34.26
2022-11-25T10:56:28.242Z,34.06
2022-11-25T10:57:28.241Z,34.2
2022-11-25T10:58:28.248Z,34.34
2022-11-25T10:59:28.241Z,34.14
2022-11-25T11:00:28.266Z,34.14
2022-11-25T11:01:28.272Z,34.51
2022-11-25T11:02:28.286Z,34.25
2022-11-25T11:03:28.322Z,35.03
2022-11-25T11:04:28.252Z,35.52
2022-11-25T11:05:28.271Z,35.03
2022-11-25T11:06:28.263Z,35.22
2022-11-25T11:07:28.310Z,35.22
2022-11-25T11:08:28.257Z,35.59
2022-11-25T11:09:28.257Z,34.94
2022-11-25T11:10:28.273Z,34.94
2022-11-25T11:11:28.264Z,34.41
2022-11-25T11:12:28.260Z,34.6
2022-11-25T11:13:28.258Z,34.06
2022-11-25T11:14:28.251Z,34.44
2022-11-25T11:15:28.271Z,33.43
2022-11-25T11:16:28.350Z,33.69
2022-11-25T11:17:31.903Z,33.3
2022-11-25T11:18:28.254Z,33.88
2022-11-25T11:19:28.257Z,34.18
2022-11-25T11:20:28.283Z,34.18
2022-11-25T11:21:28.260Z,33.85
2022-11-25T11:22:28.248Z,33.85
2022-11-25T11:23:28.249Z,33.53
2022-11-25T11:24:28.259Z,34.19
2022-11-25T11:25:28.288Z,34.31
2022-11-25T11:26:28.255Z,33.83
2022-11-25T11:27:28.258Z,33.37
2022-11-25T11:28:28.258Z,33.97
2022-11-25T11:29:28.256Z,33.42
2022-11-25T11:30:28.253Z,33.42
2022-11-25T11:31:28.386Z,33.41
2022-11-25T11:32:28.257Z,33.27
2022-11-25T11:33:28.268Z,33.18
2022-11-25T11:34:28.268Z,34.1
2022-11-25T11:35:28.263Z,34.53
2022-11-25T11:36:28.271Z,34.77
2022-11-25T11:37:28.255Z,35.29
2022-11-25T11:38:28.271Z,35.33
2022-11-25T11:39:28.256Z,35.59
2022-11-25T11:40:28.260Z,35.59
2022-11-25T11:41:28.260Z,34.78
2022-11-25T11:42:28.254Z,35.74
2022-11-25T11:43:28.257Z,36.09
2022-11-25T11:44:28.249Z,35.78
2022-11-25T11:45:28.293Z,34.64
2022-11-25T11:46:28.287Z,34.64
2022-11-25T11:47:28.248Z,33.99
2022-11-25T11:48:28.248Z,34.27
2022-11-25T11:49:30.704Z,34.01
2022-11-25T11:50:28.269Z,34.78
2022-11-25T11:51:28.234Z,35.42
2022-11-25T11:52:28.246Z,35.69
2022-11-25T11:53:28.235Z,36.3
2022-11-25T11:54:28.235Z,35.39
2022-11-25T11:55:28.491Z,35.72
2022-11-25T11:56:35.299Z,34.67
2022-11-25T11:57:28.239Z,34.37
2022-11-25T11:58:28.241Z,35.25
2022-11-25T11:59:28.261Z,34.8
2022-11-25T12:00:28.246Z,35.15
2022-11-25T12:01:28.257Z,35.17
2022-11-25T12:02:28.293Z,35.64
2022-11-25T12:03:28.300Z,36.24
2022-11-25T12:04:28.246Z,36.49
2022-11-25T12:05:28.266Z,35.65
2022-11-25T12:06:28.233Z,36.12
2022-11-25T12:07:28.285Z,35.92
2022-11-25T12:08:28.237Z,36.12
2022-11-25T12:09:28.245Z,35.74
2022-11-25T12:10:28.264Z,35.74
2022-11-25T12:11:28.249Z,36.87
2022-11-25T12:12:28.235Z,35.94
2022-11-25T12:13:28.252Z,35.94
2022-11-25T12:14:28.253Z,35.67
2022-11-25T12:15:28.256Z,35.88
2022-11-25T12:16:28.277Z,36.17
2022-11-25T12:17:28.258Z,34.79
2022-11-25T12:18:28.251Z,36.48
2022-11-25T12:19:28.234Z,36.48
2022-11-25T12:20:28.262Z,36.23
2022-11-25T12:21:28.256Z,35.68
2022-11-25T12:22:28.251Z,35.21
2022-11-25T12:23:28.259Z,35.78
2022-11-25T12:24:28.252Z,36.19
2022-11-25T12:25:28.263Z,36.19
2022-11-25T12:26:28.250Z,35.5
2022-11-25T12:27:28.255Z,35.25
2022-11-25T12:28:28.251Z,35.64
2022-11-25T12:29:28.239Z,35.64
2022-11-25T12:30:28.264Z,36.53
2022-11-25T12:31:28.278Z,34.01
2022-11-25T12:32:28.257Z,34.94
2022-11-25T12:33:28.253Z,35.91
2022-11-25T12:34:28.253Z,36.07
2022-11-25T12:35:28.263Z,34.35
2022-11-25T12:36:28.258Z,35.05
2022-11-25T12:37:28.250Z,35.76
2022-11-25T12:38:28.261Z,34.79
2022-11-25T12:39:28.262Z,35.08
2022-11-25T12:40:28.267Z,35.08
2022-11-25T12:41:28.251Z,35.68
2022-11-25T12:42:28.255Z,35.68
2022-11-25T12:43:28.257Z,35.64
2022-11-25T12:44:28.262Z,35.26
2022-11-25T12:45:28.301Z,34.75
2022-11-25T12:46:28.241Z,34.75
2022-11-25T12:47:28.262Z,34.91
2022-11-25T12:48:28.267Z,36.45
2022-11-25T12:49:28.254Z,36
2022-11-25T12:50:28.382Z,36
2022-11-25T12:51:28.253Z,35.77
2022-11-25T12:52:28.247Z,35.79
2022-11-25T12:53:28.341Z,35.79
2022-11-25T12:54:28.250Z,34.81
2022-11-25T12:55:28.297Z,35.27
2022-11-25T12:56:28.233Z,35.27